Dease Lake, Canada
Current Conditions -  °F | °C
As of 2:00 PM on Wednesday 22 Oct 2014 (Local Time) from CYDL Reporting Station
Clear Clear  
Wind Chill: 35°   Ceiling: Unl
Heat Index: 39°   Visibility: 9mi
Dew Point: 37°   Wind: 6mph
Humidity: 93%   Direction: 60°ENE
Pressure: 29.42"   Gusts: NA
Location:  58.44°N, 129.99°W
Report Text: CYDL 222100Z AUTO 06005KT 9SM CLR 04/03 A2942 RMK SLP981
Loading
Personal Weather Stations






























Interactive Weather Map
Tropical Storm Tracking
New forecast layout! Learn more

10-Day Weather Forecast

Advertisements
Track Severe Weather on mobile